createdAt,value
2018-09-13T00:01:42.232Z,15.99
2018-09-13T00:04:09.444Z,16.10
2018-09-13T00:06:36.681Z,15.12
2018-09-13T00:09:05.960Z,15.09
2018-09-13T00:11:33.125Z,15.44
2018-09-13T00:14:00.265Z,15.53
2018-09-13T00:16:27.385Z,15.26
2018-09-13T00:18:54.727Z,15.44
2018-09-13T00:21:21.864Z,15.56
2018-09-13T00:23:48.995Z,15.07
2018-09-13T00:26:16.245Z,14.99
2018-09-13T00:28:43.388Z,15.24
2018-09-13T00:31:10.586Z,15.34
2018-09-13T00:33:37.873Z,15.40
2018-09-13T00:36:05.063Z,15.25
2018-09-13T00:38:32.247Z,15.30
2018-09-13T00:40:59.360Z,14.77
2018-09-13T00:43:26.501Z,14.92
2018-09-13T00:45:53.888Z,15.10
2018-09-13T00:48:21.107Z,15.23
2018-09-13T00:50:48.228Z,15.36
2018-09-13T00:53:15.463Z,15.48
2018-09-13T00:55:42.556Z,15.18
2018-09-13T00:58:09.748Z,14.58
2018-09-13T01:00:36.977Z,14.90
2018-09-13T01:03:04.268Z,14.97
2018-09-13T01:05:31.362Z,14.99
2018-09-13T01:07:58.693Z,15.18
2018-09-13T01:10:25.828Z,15.08
2018-09-13T01:12:53.112Z,15.13
2018-09-13T01:15:20.292Z,15.18
2018-09-13T01:17:47.424Z,15.03
2018-09-13T01:20:14.649Z,15.21
2018-09-13T01:22:41.817Z,15.26
2018-09-13T01:25:09.052Z,15.15
2018-09-13T01:27:36.224Z,14.64
2018-09-13T01:30:03.597Z,14.97
2018-09-13T01:32:30.823Z,15.14
2018-09-13T01:34:58.031Z,15.20
2018-09-13T01:37:25.181Z,14.77
2018-09-13T01:39:52.470Z,14.94
2018-09-13T01:42:19.709Z,14.27
2018-09-13T01:44:46.887Z,14.44
2018-09-13T01:47:14.424Z,14.86
2018-09-13T01:49:41.593Z,15.12
2018-09-13T01:52:08.756Z,15.30
2018-09-13T01:54:36.961Z,15.41
2018-09-13T01:57:04.069Z,15.25
2018-09-13T01:59:31.205Z,15.37
2018-09-13T02:01:58.716Z,15.42
2018-09-13T02:04:25.856Z,15.64
2018-09-13T02:06:53.120Z,15.80
2018-09-13T02:09:20.258Z,15.98
2018-09-13T02:11:47.397Z,15.47
2018-09-13T02:14:14.612Z,15.18
2018-09-13T02:16:41.705Z,15.12
2018-09-13T02:19:08.877Z,15.22
2018-09-13T02:21:36.108Z,15.44
2018-09-13T02:24:03.301Z,15.61
2018-09-13T02:26:30.399Z,15.71
2018-09-13T02:28:58.525Z,15.64
2018-09-13T02:31:25.660Z,15.53
2018-09-13T02:33:52.829Z,15.69
2018-09-13T02:36:20.084Z,15.69
2018-09-13T02:38:47.198Z,15.62
2018-09-13T02:41:14.324Z,15.62
2018-09-13T02:43:41.499Z,15.53
2018-09-13T02:46:08.657Z,15.48
2018-09-13T02:48:35.866Z,15.34
2018-09-13T02:51:02.984Z,15.51
2018-09-13T02:53:30.192Z,15.39
2018-09-13T02:55:58.092Z,15.00
2018-09-13T02:58:25.290Z,14.88
2018-09-13T03:00:52.413Z,14.88
2018-09-13T03:03:19.589Z,14.83
2018-09-13T03:05:46.879Z,14.92
2018-09-13T03:08:14.148Z,14.97
2018-09-13T03:10:41.414Z,14.77
2018-09-13T03:13:08.575Z,14.80
2018-09-13T03:15:35.869Z,14.96
2018-09-13T03:18:03.127Z,15.11
2018-09-13T03:20:30.306Z,15.15
2018-09-13T03:22:57.495Z,15.02
2018-09-13T03:25:24.643Z,15.00
2018-09-13T03:27:52.364Z,15.05
2018-09-13T03:30:19.638Z,15.19
2018-09-13T03:32:46.846Z,15.17
2018-09-13T03:35:14.168Z,15.29
2018-09-13T03:37:41.491Z,15.40
2018-09-13T03:40:08.655Z,15.51
2018-09-13T03:42:35.905Z,15.61
2018-09-13T03:45:03.411Z,15.66
2018-09-13T03:47:30.556Z,15.74
2018-09-13T03:49:57.701Z,15.45
2018-09-13T03:52:24.872Z,15.34
2018-09-13T03:54:52.045Z,15.42
2018-09-13T03:57:19.248Z,15.55
2018-09-13T03:59:46.440Z,15.58
2018-09-13T04:02:13.591Z,15.77
2018-09-13T04:04:41.540Z,15.86
2018-09-13T04:07:08.762Z,15.85
2018-09-13T04:09:35.924Z,15.90
2018-09-13T04:12:03.172Z,15.95
2018-09-13T04:14:30.392Z,15.97
2018-09-13T04:16:57.514Z,15.84
2018-09-13T04:19:29.310Z,15.75
2018-09-13T04:21:56.392Z,15.61
2018-09-13T04:24:23.692Z,15.46
2018-09-13T04:26:50.760Z,15.54
2018-09-13T04:29:17.993Z,15.50
2018-09-13T04:31:45.213Z,15.51
2018-09-13T04:34:12.360Z,15.60
2018-09-13T04:36:39.650Z,15.60
2018-09-13T04:39:07.449Z,15.70
2018-09-13T04:41:34.653Z,15.77
2018-09-13T04:44:01.829Z,15.79
2018-09-13T04:46:29.052Z,15.76
2018-09-13T04:48:56.168Z,15.90
2018-09-13T04:51:23.410Z,15.98
2018-09-13T04:53:50.544Z,16.01
2018-09-13T04:56:17.864Z,15.86
2018-09-13T04:58:45.224Z,15.73
2018-09-13T05:01:12.361Z,15.80
2018-09-13T05:03:39.537Z,15.77
2018-09-13T05:06:06.821Z,15.99
2018-09-13T05:08:33.910Z,16.04
2018-09-13T05:11:01.153Z,16.09
2018-09-13T05:13:28.399Z,16.01
2018-09-13T05:15:55.492Z,16.07
2018-09-13T05:18:22.745Z,16.24
2018-09-13T05:20:49.881Z,16.16
2018-09-13T05:23:17.036Z,16.04
2018-09-13T05:25:45.099Z,16.08
2018-09-13T05:28:12.340Z,16.08
2018-09-13T05:30:39.459Z,15.85
2018-09-13T05:33:06.633Z,16.00
2018-09-13T05:35:33.812Z,16.05
2018-09-13T05:38:01.009Z,16.08
2018-09-13T05:40:28.338Z,16.17
2018-09-13T05:42:55.539Z,16.18
2018-09-13T05:45:22.656Z,16.23
2018-09-13T05:47:49.847Z,16.30
2018-09-13T05:50:17.152Z,16.33
2018-09-13T05:52:44.507Z,16.61
2018-09-13T05:55:11.758Z,16.59
2018-09-13T05:57:38.916Z,16.70
2018-09-13T06:00:06.408Z,16.61
2018-09-13T06:02:33.588Z,16.55
2018-09-13T06:05:00.722Z,16.69
2018-09-13T06:07:27.971Z,16.75
2018-09-13T06:09:55.173Z,16.63
2018-09-13T06:12:22.340Z,16.73
2018-09-13T06:14:49.570Z,16.46
2018-09-13T06:17:16.752Z,16.25
2018-09-13T06:19:44.695Z,16.07
2018-09-13T06:22:11.958Z,15.95
2018-09-13T06:24:39.077Z,15.95
2018-09-13T06:27:06.244Z,15.98
2018-09-13T06:29:33.737Z,16.06
2018-09-13T06:32:00.853Z,15.91
2018-09-13T06:34:28.051Z,15.96
2018-09-13T06:36:55.316Z,16.25
2018-09-13T06:39:22.472Z,16.27
2018-09-13T06:41:49.674Z,16.30
2018-09-13T06:44:16.832Z,16.48
2018-09-13T06:46:44.048Z,16.66
2018-09-13T06:49:11.369Z,16.71
2018-09-13T06:51:38.537Z,16.89
2018-09-13T06:54:05.736Z,16.99
2018-09-13T06:56:32.904Z,17.07
2018-09-13T06:59:00.028Z,17.21
2018-09-13T07:01:27.229Z,17.26
2018-09-13T07:03:54.473Z,17.37
2018-09-13T07:06:21.604Z,17.01
2018-09-13T07:08:48.845Z,17.24
2018-09-13T07:11:15.972Z,16.98
2018-09-13T07:13:43.255Z,16.95
2018-09-13T07:16:10.484Z,17.26
2018-09-13T07:18:37.645Z,16.91
2018-09-13T07:21:04.845Z,17.04
2018-09-13T07:23:32.028Z,17.25
2018-09-13T07:25:59.129Z,17.59
2018-09-13T07:28:26.336Z,17.76
2018-09-13T07:30:53.575Z,17.69
2018-09-13T07:33:20.685Z,17.63
2018-09-13T07:35:47.911Z,17.72
2018-09-13T07:38:15.080Z,18.01
2018-09-13T07:40:42.324Z,17.85
2018-09-13T07:43:09.424Z,17.79
2018-09-13T07:45:36.556Z,18.08
2018-09-13T07:48:03.662Z,17.96
2018-09-13T07:50:30.876Z,17.92
2018-09-13T07:52:58.044Z,17.82
2018-09-13T07:55:25.300Z,18.01
2018-09-13T07:57:52.470Z,18.25
2018-09-13T08:00:19.628Z,18.41
2018-09-13T08:02:46.944Z,18.18
2018-09-13T08:05:14.100Z,18.21
2018-09-13T08:07:41.314Z,18.26
2018-09-13T08:10:08.700Z,18.30
2018-09-13T08:12:35.865Z,18.44
2018-09-13T08:15:03.538Z,18.25
2018-09-13T08:17:30.750Z,18.31
2018-09-13T08:19:57.940Z,18.16
2018-09-13T08:22:25.157Z,18.24
2018-09-13T08:24:52.288Z,18.56
2018-09-13T08:27:19.554Z,18.72
2018-09-13T08:29:46.706Z,18.84
2018-09-13T08:32:13.872Z,19.25
2018-09-13T08:34:40.989Z,19.15
2018-09-13T08:37:08.190Z,19.51
2018-09-13T08:39:35.312Z,19.85
2018-09-13T08:42:02.475Z,19.89
2018-09-13T08:44:29.653Z,20.23
2018-09-13T08:46:56.840Z,20.19
2018-09-13T08:49:24.109Z,20.14
2018-09-13T08:51:51.326Z,20.26
2018-09-13T08:54:18.460Z,20.81
2018-09-13T08:56:45.764Z,21.20
2018-09-13T08:59:12.907Z,21.20
2018-09-13T09:01:40.092Z,21.06
2018-09-13T09:04:07.298Z,20.98
2018-09-13T09:06:34.474Z,21.05
2018-09-13T09:09:01.569Z,21.03
2018-09-13T09:11:28.718Z,21.07
2018-09-13T09:13:55.833Z,20.85
2018-09-13T09:16:23.076Z,20.76
2018-09-13T09:18:50.373Z,20.62
2018-09-13T09:21:17.494Z,20.37
2018-09-13T09:23:44.640Z,20.36
2018-09-13T09:26:11.768Z,20.37
2018-09-13T09:28:39.039Z,20.18
2018-09-13T09:31:06.416Z,20.41
2018-09-13T09:33:33.532Z,20.58
2018-09-13T09:36:00.695Z,20.59
2018-09-13T09:38:27.871Z,20.32
2018-09-13T09:40:54.997Z,20.40
2018-09-13T09:43:22.205Z,20.56
2018-09-13T09:45:49.430Z,20.40
2018-09-13T09:48:16.554Z,20.41
2018-09-13T09:50:43.776Z,20.25
2018-09-13T09:53:10.897Z,20.28
2018-09-13T09:55:38.049Z,19.94
2018-09-13T09:58:05.341Z,19.77
2018-09-13T10:00:38.106Z,19.86
2018-09-13T10:03:05.403Z,19.78
2018-09-13T10:05:32.553Z,19.72
2018-09-13T10:07:59.832Z,19.69
2018-09-13T10:10:27.006Z,19.84
2018-09-13T10:12:54.182Z,19.88
2018-09-13T10:15:27.055Z,20.08
2018-09-13T10:17:59.940Z,20.37
2018-09-13T10:20:32.964Z,20.68
2018-09-13T10:23:05.904Z,20.73
2018-09-13T10:25:38.855Z,20.83
2018-09-13T10:28:11.829Z,20.82
2018-09-13T10:30:44.592Z,21.03
2018-09-13T10:33:17.373Z,21.06
2018-09-13T10:35:50.287Z,20.98
2018-09-13T10:38:23.076Z,20.92
2018-09-13T10:40:56.316Z,21.13
2018-09-13T10:43:29.397Z,21.43
2018-09-13T10:46:02.350Z,21.54
2018-09-13T10:48:31.012Z,21.63
2018-09-13T10:51:03.973Z,21.72
2018-09-13T10:53:38.165Z,21.74
2018-09-13T10:56:05.758Z,21.86
2018-09-13T10:58:33.057Z,21.99
2018-09-13T11:01:00.196Z,21.95
2018-09-13T11:03:27.381Z,22.04
2018-09-13T11:05:54.648Z,21.99
2018-09-13T11:08:21.839Z,22.08
2018-09-13T11:10:49.200Z,22.09
2018-09-13T11:13:53.152Z,21.66
2018-09-13T11:16:20.851Z,21.49
2018-09-13T11:18:48.068Z,21.37
2018-09-13T11:21:16.998Z,21.31
2018-09-13T11:23:44.216Z,21.29
2018-09-13T11:26:11.409Z,21.17
2018-09-13T11:28:38.693Z,21.10
2018-09-13T11:31:05.952Z,21.04
2018-09-13T11:33:34.367Z,21.11
2018-09-13T11:36:01.544Z,21.04
2018-09-13T11:38:28.700Z,21.04
2018-09-13T11:40:56.262Z,20.96
2018-09-13T11:43:23.340Z,20.84
2018-09-13T11:45:50.495Z,20.77
2018-09-13T11:48:17.777Z,20.87
2018-09-13T11:50:45.058Z,20.84
2018-09-13T11:53:12.216Z,20.85
2018-09-13T11:55:41.156Z,20.70
2018-09-13T11:58:08.326Z,20.78
2018-09-13T12:00:35.473Z,20.64
2018-09-13T12:03:02.908Z,20.65
2018-09-13T12:05:30.275Z,20.78
2018-09-13T12:07:57.437Z,20.98
2018-09-13T12:10:24.600Z,20.71
2018-09-13T12:12:51.708Z,20.68
2018-09-13T12:15:18.880Z,20.54
2018-09-13T12:17:53.132Z,20.79
2018-09-13T12:20:20.244Z,20.81
2018-09-13T12:22:47.536Z,20.89
2018-09-13T12:25:14.747Z,20.77
2018-09-13T12:27:42.021Z,20.73
2018-09-13T12:30:09.237Z,20.74
2018-09-13T12:32:36.669Z,20.91
2018-09-13T12:35:04.588Z,20.84
2018-09-13T12:37:32.143Z,20.92
2018-09-13T12:39:59.389Z,21.02
2018-09-13T12:42:26.495Z,21.00
2018-09-13T12:44:53.696Z,20.99
2018-09-13T12:47:20.876Z,21.18
2018-09-13T12:49:48.242Z,21.12
2018-09-13T12:52:15.454Z,21.73
2018-09-13T12:54:42.634Z,21.83
2018-09-13T12:57:09.884Z,22.03
2018-09-13T12:59:37.069Z,21.59
2018-09-13T13:02:04.301Z,21.70
2018-09-13T13:04:31.514Z,21.48
2018-09-13T13:06:58.670Z,21.34
2018-09-13T13:09:25.769Z,21.21
2018-09-13T13:11:52.994Z,20.92
2018-09-13T13:14:20.173Z,20.79
2018-09-13T13:16:47.311Z,20.98
2018-09-13T13:19:14.646Z,20.83
2018-09-13T13:21:41.798Z,21.46
2018-09-13T13:24:08.937Z,21.99
2018-09-13T13:26:36.134Z,22.77
2018-09-13T13:29:03.313Z,23.21
2018-09-13T13:31:30.512Z,22.94
2018-09-13T13:33:57.688Z,22.94
2018-09-13T13:36:24.848Z,22.58
2018-09-13T13:38:52.065Z,22.16
2018-09-13T13:41:19.338Z,22.66
2018-09-13T13:43:46.529Z,22.68
2018-09-13T13:46:13.768Z,22.37
2018-09-13T13:48:40.993Z,22.18
2018-09-13T13:51:08.271Z,22.06
2018-09-13T13:53:35.545Z,22.86
2018-09-13T13:56:02.720Z,23.59
2018-09-13T13:58:30.019Z,23.03
2018-09-13T14:00:57.382Z,22.76
2018-09-13T14:03:24.637Z,22.50
2018-09-13T14:05:51.908Z,22.50
2018-09-13T14:08:19.083Z,22.10
2018-09-13T14:10:46.270Z,22.04
2018-09-13T14:13:13.581Z,21.68
2018-09-13T14:15:40.820Z,22.00
2018-09-13T14:18:08.108Z,22.15
2018-09-13T14:20:35.475Z,22.22
2018-09-13T14:23:02.524Z,21.97
2018-09-13T14:25:29.825Z,21.77
2018-09-13T14:27:57.112Z,21.81
2018-09-13T14:30:24.257Z,21.72
2018-09-13T14:32:51.381Z,21.65
2018-09-13T14:35:19.201Z,21.86
2018-09-13T14:37:46.324Z,21.79
2018-09-13T14:40:13.669Z,21.32
2018-09-13T14:42:40.833Z,22.10
2018-09-13T14:45:08.014Z,22.18
2018-09-13T14:47:35.303Z,22.72
2018-09-13T14:50:03.721Z,22.28
2018-09-13T14:52:30.846Z,22.50
2018-09-13T14:54:58.070Z,22.82
2018-09-13T14:57:25.330Z,22.60
2018-09-13T14:59:52.488Z,22.95
2018-09-13T15:02:19.721Z,23.52
2018-09-13T15:04:46.910Z,22.88
2018-09-13T15:07:14.123Z,23.02
2018-09-13T15:09:41.453Z,22.48
2018-09-13T15:12:08.590Z,22.25
2018-09-13T15:14:35.824Z,22.23
2018-09-13T15:17:03.016Z,22.31
2018-09-13T15:19:30.196Z,22.57
2018-09-13T15:21:57.425Z,22.45
2018-09-13T15:24:24.878Z,22.86
2018-09-13T15:26:51.953Z,23.63
2018-09-13T15:29:19.286Z,23.99
2018-09-13T15:31:46.457Z,24.09
2018-09-13T15:34:13.620Z,23.51
2018-09-13T15:36:40.837Z,23.39
2018-09-13T15:39:09.529Z,22.85
2018-09-13T15:41:36.679Z,22.32
2018-09-13T15:44:03.965Z,22.43
2018-09-13T15:46:31.182Z,22.28
2018-09-13T15:48:58.347Z,22.40
2018-09-13T15:51:25.648Z,22.29
2018-09-13T15:53:52.821Z,22.11
2018-09-13T15:56:20.100Z,22.02
2018-09-13T15:58:47.816Z,21.88
2018-09-13T16:01:15.054Z,21.88
2018-09-13T16:03:42.348Z,21.77
2018-09-13T16:06:09.710Z,21.75
2018-09-13T16:08:36.894Z,21.80
2018-09-13T16:11:04.155Z,21.70
2018-09-13T16:13:31.286Z,21.75
2018-09-13T16:15:58.433Z,21.66
2018-09-13T16:18:25.739Z,21.68
2018-09-13T16:20:53.195Z,21.58
2018-09-13T16:23:20.287Z,21.72
2018-09-13T16:25:47.581Z,21.66
2018-09-13T16:28:14.797Z,21.62
2018-09-13T16:30:41.996Z,21.60
2018-09-13T16:33:09.267Z,21.62
2018-09-13T16:35:44.673Z,21.54
2018-09-13T16:38:17.925Z,21.55
2018-09-13T16:40:50.776Z,21.49
2018-09-13T16:43:22.513Z,21.43
2018-09-13T16:45:50.877Z,21.23
2018-09-13T16:48:18.192Z,21.37
2018-09-13T16:50:45.497Z,21.45
2018-09-13T16:53:12.737Z,21.50
2018-09-13T16:55:40.032Z,21.30
2018-09-13T16:58:07.851Z,21.06
2018-09-13T17:00:34.997Z,20.80
2018-09-13T17:03:02.138Z,20.69
2018-09-13T17:05:29.322Z,20.63
2018-09-13T17:07:56.495Z,20.60
2018-09-13T17:10:23.690Z,20.54
2018-09-13T17:12:51.282Z,20.60
2018-09-13T17:15:18.589Z,20.52
2018-09-13T17:17:45.901Z,20.49
2018-09-13T17:20:13.133Z,20.44
2018-09-13T17:22:40.593Z,20.46
2018-09-13T17:25:07.957Z,20.25
2018-09-13T17:27:35.148Z,20.16
2018-09-13T17:30:04.260Z,19.95
2018-09-13T17:32:31.473Z,19.95
2018-09-13T17:34:59.075Z,19.78
2018-09-13T17:37:26.497Z,19.91
2018-09-13T17:39:53.682Z,19.77
2018-09-13T17:42:20.933Z,19.63
2018-09-13T17:44:48.073Z,19.58
2018-09-13T17:47:15.335Z,19.49
2018-09-13T17:49:42.526Z,19.32
2018-09-13T17:52:09.909Z,19.25
2018-09-13T17:54:37.245Z,19.26
2018-09-13T17:57:04.519Z,19.25
2018-09-13T17:59:31.689Z,19.17
2018-09-13T18:01:59.533Z,19.20
2018-09-13T18:04:26.733Z,19.07
2018-09-13T18:06:54.965Z,18.92
2018-09-13T18:09:22.171Z,18.69
2018-09-13T18:11:49.341Z,18.55
2018-09-13T18:14:16.576Z,18.44
2018-09-13T18:16:43.818Z,18.46
2018-09-13T18:19:10.966Z,18.43
2018-09-13T18:21:38.233Z,18.27
2018-09-13T18:24:05.616Z,18.30
2018-09-13T18:26:33.349Z,18.37
2018-09-13T18:29:00.511Z,18.24
2018-09-13T18:31:27.866Z,18.20
2018-09-13T18:33:55.033Z,18.29
2018-09-13T18:36:22.365Z,18.23
2018-09-13T18:38:49.949Z,18.30
2018-09-13T18:41:17.141Z,18.31
2018-09-13T18:43:44.353Z,18.31
2018-09-13T18:46:11.980Z,18.35
2018-09-13T18:48:39.187Z,18.39
2018-09-13T18:51:06.405Z,18.15
2018-09-13T18:53:33.711Z,18.19
2018-09-13T18:56:01.641Z,18.15
2018-09-13T18:58:28.951Z,18.12
2018-09-13T19:00:56.285Z,18.02
2018-09-13T19:03:23.424Z,18.07
2018-09-13T19:05:50.691Z,17.95
2018-09-13T19:08:17.998Z,17.88
2018-09-13T19:10:45.216Z,17.89
2018-09-13T19:13:12.451Z,17.87
2018-09-13T19:15:39.736Z,18.09
2018-09-13T19:18:07.467Z,17.98
2018-09-13T19:20:35.573Z,18.00
2018-09-13T19:23:02.771Z,18.18
2018-09-13T19:25:30.173Z,18.26
2018-09-13T19:27:58.158Z,18.25
2018-09-13T19:30:25.367Z,18.34
2018-09-13T19:32:52.575Z,18.30
2018-09-13T19:35:19.749Z,18.28
2018-09-13T19:37:46.965Z,18.41
2018-09-13T19:40:14.154Z,18.19
2018-09-13T19:42:41.640Z,17.99
2018-09-13T19:45:08.774Z,18.05
2018-09-13T19:47:35.944Z,18.09
2018-09-13T19:50:03.219Z,17.86
2018-09-13T19:52:30.729Z,17.72
2018-09-13T19:55:04.783Z,17.80
2018-09-13T19:57:32.024Z,17.90
2018-09-13T19:59:59.193Z,17.87
2018-09-13T20:02:26.353Z,17.76
2018-09-13T20:04:54.328Z,17.89
2018-09-13T20:07:21.814Z,17.87
2018-09-13T20:09:49.060Z,17.78
2018-09-13T20:12:16.405Z,17.66
2018-09-13T20:14:43.590Z,17.52
2018-09-13T20:17:10.757Z,17.55
2018-09-13T20:19:37.965Z,17.42
2018-09-13T20:22:05.312Z,17.34
2018-09-13T20:24:32.506Z,17.24
2018-09-13T20:26:59.715Z,17.20
2018-09-13T20:29:26.857Z,17.14
2018-09-13T20:31:55.017Z,17.11
2018-09-13T20:34:22.152Z,17.16
2018-09-13T20:36:49.311Z,17.27
2018-09-13T20:39:16.517Z,17.38
2018-09-13T20:41:43.880Z,17.24
2018-09-13T20:44:11.061Z,17.25
2018-09-13T20:46:38.392Z,17.41
2018-09-13T20:49:06.199Z,17.40
2018-09-13T20:51:33.409Z,17.21
2018-09-13T20:54:00.636Z,17.13
2018-09-13T20:56:27.953Z,17.10
2018-09-13T20:58:55.177Z,17.30
2018-09-13T21:01:22.453Z,17.48
2018-09-13T21:03:49.602Z,17.23
2018-09-13T21:06:17.175Z,17.22
2018-09-13T21:08:44.775Z,16.96
2018-09-13T21:11:12.040Z,16.93
2018-09-13T21:13:39.220Z,16.67
2018-09-13T21:16:06.729Z,16.71
2018-09-13T21:18:33.848Z,16.80
2018-09-13T21:21:01.243Z,16.96
2018-09-13T21:23:28.711Z,16.93
2018-09-13T21:25:55.969Z,16.92
2018-09-13T21:28:23.120Z,16.90
2018-09-13T21:30:50.455Z,16.92
2018-09-13T21:33:17.626Z,16.71
2018-09-13T21:35:44.809Z,16.71
2018-09-13T21:38:12.168Z,16.90
2018-09-13T21:40:39.460Z,16.86
2018-09-13T21:43:06.588Z,16.81
2018-09-13T21:45:33.741Z,16.82
2018-09-13T21:48:00.876Z,16.83
2018-09-13T21:50:28.057Z,16.93
2018-09-13T21:52:55.193Z,16.86
2018-09-13T21:55:22.332Z,16.73
2018-09-13T21:57:49.562Z,16.76
2018-09-13T22:00:16.777Z,16.70
2018-09-13T22:02:43.940Z,16.43
2018-09-13T22:05:11.119Z,16.16
2018-09-13T22:07:38.214Z,16.37
2018-09-13T22:10:05.461Z,16.39
2018-09-13T22:12:32.626Z,16.08
2018-09-13T22:15:00.095Z,16.02
2018-09-13T22:17:27.243Z,16.06
2018-09-13T22:19:54.380Z,15.80
2018-09-13T22:22:21.665Z,16.11
2018-09-13T22:24:48.835Z,16.09
2018-09-13T22:27:15.966Z,16.00
2018-09-13T22:29:49.992Z,16.04
2018-09-13T22:32:17.261Z,16.22
2018-09-13T22:34:44.376Z,16.18
2018-09-13T22:37:11.593Z,16.36
2018-09-13T22:39:38.847Z,16.46
2018-09-13T22:42:06.253Z,16.60
2018-09-13T22:44:38.343Z,16.46
2018-09-13T22:47:05.569Z,16.36
2018-09-13T22:49:32.784Z,16.36
2018-09-13T22:51:59.944Z,16.37
2018-09-13T22:54:27.095Z,16.34
2018-09-13T22:56:54.290Z,16.03
2018-09-13T22:59:21.440Z,15.70
2018-09-13T23:01:48.576Z,15.71
2018-09-13T23:04:15.685Z,15.75
2018-09-13T23:06:42.841Z,15.60
2018-09-13T23:09:10.957Z,15.46
2018-09-13T23:11:38.128Z,15.53
2018-09-13T23:14:05.229Z,15.49
2018-09-13T23:16:32.699Z,15.51
2018-09-13T23:18:59.808Z,15.43
2018-09-13T23:21:26.977Z,15.53
2018-09-13T23:23:54.148Z,15.40
2018-09-13T23:26:21.285Z,15.41
2018-09-13T23:28:48.617Z,15.46
2018-09-13T23:31:15.753Z,15.18
2018-09-13T23:33:42.840Z,15.21
2018-09-13T23:36:10.024Z,15.16
2018-09-13T23:38:37.257Z,15.34
2018-09-13T23:41:04.380Z,15.40
2018-09-13T23:43:31.560Z,15.46
2018-09-13T23:45:58.704Z,15.61
2018-09-13T23:48:25.839Z,15.67
2018-09-13T23:50:52.988Z,15.72
2018-09-13T23:53:20.196Z,15.79
2018-09-13T23:55:47.312Z,15.79
2018-09-13T23:58:14.463Z,15.76
